Affton, Missouri
Current Conditions -  °F | °C
As of 11:53 PM on Sunday 19 Oct 2014 (Local Time) from KCPS Reporting Station
Overcast Overcast  
Wind Chill: 14°   Ceiling: 11000
Heat Index: 14°   Visibility: 10mi
Dew Point:   Wind: 6mph
Humidity: 67%   Direction: 210°SSW
Pressure: 30.02"   Gusts: NA
Location:  38.55°N, 90.33°W
Report Text: KCPS 200453Z AUTO 21005KT 10SM OVC110 14/08 A3002 RMK AO2 SLP164 T01390078 $
Loading
Personal Weather Stations






























Interactive Weather Map
Tropical Storm Tracking
New forecast layout! Learn more

10-Day Weather Forecast

Advertisements
Track Severe Weather on mobile